Time;durP1;ratioP1;P1;durP2;ratioP2;P2;SDS_P1;SDS_P2;PMS_P1;PMS_P2;Temp;Humidity;BMP_temperature;BMP_pressure;BME280_temperature;BME280_humidity;BME280_pressure;Samples;Min_cycle;Max_cycle;Signal;HPM_P1;HPM_P2
2024/01/13 00:01:57;;;;;;;6.83;1.50;;;;;;;;;;5107388;28;20177;-58
2024/01/13 00:04:23;;;;;;;1.40;1.00;;;;;;;;;;5107657;28;20167;-57
2024/01/13 00:06:49;;;;;;;3.63;1.60;;;;;;;;;;5108088;28;20219;-58
2024/01/13 00:09:17;;;;;;;4.77;2.00;;;;;;;;;;5089644;28;20444;-58
2024/01/13 00:11:43;;;;;;;3.93;1.60;;;;;;;;;;5087952;28;20258;-57
2024/01/13 00:14:09;;;;;;;3.33;0.90;;;;;;;;;;5107473;28;20183;-58
2024/01/13 00:16:35;;;;;;;3.83;1.07;;;;;;;;;;5112425;28;20605;-58
2024/01/13 00:19:02;;;;;;;5.63;1.73;;;;;;;;;;5093907;28;20729;-57
2024/01/13 00:21:29;;;;;;;9.30;2.07;;;;;;;;;;5094901;28;20203;-58
2024/01/13 00:23:57;;;;;;;5.87;1.27;;;;;;;;;;5113246;28;20638;-58
2024/01/13 00:26:24;;;;;;;3.47;1.40;;;;;;;;;;5114235;28;20595;-59
2024/01/13 00:28:52;;;;;;;5.57;1.57;;;;;;;;;;5095081;28;20251;-59
2024/01/13 00:31:21;;;;;;;5.53;1.97;;;;;;;;;;5095798;28;20735;-59
2024/01/13 00:33:47;;;;;;;3.40;1.53;;;;;;;;;;5113691;28;20599;-58
2024/01/13 00:36:13;;;;;;;3.73;1.47;;;;;;;;;;5095156;28;20335;-59
2024/01/13 00:38:39;;;;;;;4.13;1.37;;;;;;;;;;5091466;28;20239;-56
2024/01/13 00:41:05;;;;;;;2.50;1.40;;;;;;;;;;5091812;28;20255;-56
2024/01/13 00:43:32;;;;;;;1.33;0.97;;;;;;;;;;5109754;28;20172;-58
2024/01/13 00:45:58;;;;;;;3.10;1.50;;;;;;;;;;5110289;28;20163;-60
2024/01/13 00:48:24;;;;;;;5.00;1.70;;;;;;;;;;5092906;28;20228;-59
2024/01/13 00:50:50;;;;;;;2.87;1.33;;;;;;;;;;5092956;28;20180;-60
2024/01/13 00:53:16;;;;;;;2.13;1.33;;;;;;;;;;5111033;28;20217;-58
2024/01/13 00:55:42;;;;;;;3.87;1.40;;;;;;;;;;5091074;28;20202;-57
2024/01/13 00:58:08;;;;;;;3.87;1.30;;;;;;;;;;5091187;28;20211;-59
2024/01/13 01:00:34;;;;;;;3.47;1.30;;;;;;;;;;5091056;28;20198;-60
2024/01/13 01:03:00;;;;;;;2.57;1.27;;;;;;;;;;5109790;28;20164;-59
2024/01/13 01:05:27;;;;;;;2.67;1.37;;;;;;;;;;5091419;28;20186;-59
2024/01/13 01:07:53;;;;;;;1.87;1.20;;;;;;;;;;5092254;28;20179;-58
2024/01/13 01:10:19;;;;;;;2.07;1.40;;;;;;;;;;5094356;28;20270;-58
2024/01/13 01:12:45;;;;;;;1.67;1.10;;;;;;;;;;5094505;28;20809;-59
2024/01/13 01:15:11;;;;;;;3.87;1.40;;;;;;;;;;5098192;28;20266;-59
2024/01/13 01:17:37;;;;;;;2.23;1.47;;;;;;;;;;5099940;28;20294;-60
2024/01/13 01:20:03;;;;;;;4.43;1.53;;;;;;;;;;5099741;28;20258;-60
2024/01/13 01:22:29;;;;;;;2.93;1.40;;;;;;;;;;5099909;28;20260;-58
2024/01/13 01:24:55;;;;;;;5.40;1.63;;;;;;;;;;5117814;28;20194;-60
2024/01/13 01:27:21;;;;;;;2.20;1.50;;;;;;;;;;5098673;28;20232;-59
2024/01/13 01:29:47;;;;;;;5.43;1.80;;;;;;;;;;5099181;28;20171;-58
2024/01/13 01:32:13;;;;;;;6.43;2.13;;;;;;;;;;5098619;28;20189;-59
2024/01/13 01:34:39;;;;;;;5.13;2.20;;;;;;;;;;5117045;28;20171;-59
2024/01/13 01:37:05;;;;;;;4.53;2.83;;;;;;;;;;5117282;28;20275;-57
2024/01/13 01:39:31;;;;;;;6.37;2.93;;;;;;;;;;5098668;28;20156;-58
2024/01/13 01:41:57;;;;;;;4.47;3.03;;;;;;;;;;5117889;28;20221;-58
2024/01/13 01:44:23;;;;;;;8.63;3.87;;;;;;;;;;5099194;28;20167;-59
2024/01/13 01:46:50;;;;;;;5.33;2.57;;;;;;;;;;5099802;28;20599;-58
2024/01/13 01:49:16;;;;;;;3.63;2.53;;;;;;;;;;5098559;28;20263;-59
2024/01/13 01:51:43;;;;;;;5.20;3.90;;;;;;;;;;5098777;28;20171;-58
2024/01/13 01:54:09;;;;;;;3.77;2.67;;;;;;;;;;5098547;28;20211;-58
2024/01/13 01:56:35;;;;;;;6.27;2.90;;;;;;;;;;5098194;28;20194;-59
2024/01/13 01:59:02;;;;;;;3.33;2.80;;;;;;;;;;5116725;28;20156;-58
2024/01/13 02:01:30;;;;;;;5.47;2.80;;;;;;;;;;5096956;28;20172;-59
2024/01/13 02:03:56;;;;;;;3.20;2.40;;;;;;;;;;5115175;28;20710;-58
2024/01/13 02:06:22;;;;;;;2.97;1.90;;;;;;;;;;5116487;28;20256;-59
2024/01/13 02:08:48;;;;;;;4.20;2.10;;;;;;;;;;5099476;28;20183;-58
2024/01/13 02:11:15;;;;;;;3.33;2.03;;;;;;;;;;5098351;28;20643;-58
2024/01/13 02:13:41;;;;;;;6.00;1.87;;;;;;;;;;5098633;28;20182;-58
2024/01/13 02:16:08;;;;;;;2.90;1.27;;;;;;;;;;5098783;28;20178;-59
2024/01/13 02:18:34;;;;;;;3.33;1.50;;;;;;;;;;5098331;28;20171;-59
2024/01/13 02:21:00;;;;;;;2.10;1.50;;;;;;;;;;5098227;28;20179;-59
2024/01/13 02:23:26;;;;;;;2.23;1.30;;;;;;;;;;5099240;28;20171;-59
2024/01/13 02:25:52;;;;;;;2.40;1.60;;;;;;;;;;5116934;28;20147;-55
2024/01/13 02:28:18;;;;;;;3.80;1.57;;;;;;;;;;5098506;28;20172;-60
2024/01/13 02:30:45;;;;;;;3.43;1.60;;;;;;;;;;5098297;28;20175;-57
2024/01/13 02:33:13;;;;;;;2.37;1.20;;;;;;;;;;5098276;28;20266;-58
2024/01/13 02:35:39;;;;;;;3.37;1.87;;;;;;;;;;5116879;28;20179;-59
2024/01/13 02:38:05;;;;;;;2.73;1.53;;;;;;;;;;5099006;28;20255;-58
2024/01/13 02:40:31;;;;;;;1.80;1.40;;;;;;;;;;5116249;28;20466;-57
2024/01/13 02:42:57;;;;;;;2.60;2.07;;;;;;;;;;5099196;28;20417;-60
2024/01/13 02:45:23;;;;;;;6.93;1.77;;;;;;;;;;5099375;28;20227;-59
2024/01/13 02:47:52;;;;;;;6.10;1.60;;;;;;;;;;5098907;28;20167;-57
2024/01/13 02:50:18;;;;;;;4.87;1.73;;;;;;;;;;5116441;28;20172;-58
2024/01/13 02:52:47;;;;;;;5.37;1.60;;;;;;;;;;5098444;28;20365;-59
2024/01/13 02:55:13;;;;;;;2.80;1.70;;;;;;;;;;5097646;28;20178;-58
2024/01/13 02:57:38;;;;;;;3.73;1.70;;;;;;;;;;5097362;28;20207;-57
2024/01/13 03:00:05;;;;;;;3.90;2.10;;;;;;;;;;5097590;28;20604;-60
2024/01/13 03:02:31;;;;;;;4.13;1.80;;;;;;;;;;5097660;28;20461;-58
2024/01/13 03:04:57;;;;;;;4.50;2.10;;;;;;;;;;5097761;28;20179;-59
2024/01/13 03:07:25;;;;;;;2.97;1.73;;;;;;;;;;5097712;28;20187;-59
2024/01/13 03:09:51;;;;;;;2.30;1.93;;;;;;;;;;5098280;28;20222;-59
2024/01/13 03:12:18;;;;;;;3.27;2.13;;;;;;;;;;5097698;28;20234;-60
2024/01/13 03:14:44;;;;;;;2.83;1.90;;;;;;;;;;5097186;28;20201;-59
2024/01/13 03:17:09;;;;;;;3.87;2.33;;;;;;;;;;5115632;28;20230;-59
2024/01/13 03:19:35;;;;;;;2.73;1.70;;;;;;;;;;5097832;28;20166;-59
2024/01/13 03:22:04;;;;;;;3.10;1.90;;;;;;;;;;5116361;28;20210;-59
2024/01/13 03:24:30;;;;;;;5.07;2.90;;;;;;;;;;5097399;28;20167;-57
2024/01/13 03:26:56;;;;;;;7.63;3.23;;;;;;;;;;5097114;28;20175;-57
2024/01/13 03:29:22;;;;;;;5.27;3.03;;;;;;;;;;5098033;28;20182;-59
2024/01/13 03:31:48;;;;;;;9.23;3.30;;;;;;;;;;5097258;28;20273;-59
2024/01/13 03:34:14;;;;;;;4.77;3.07;;;;;;;;;;5097504;28;20182;-58
2024/01/13 03:36:40;;;;;;;3.43;2.23;;;;;;;;;;5097327;28;20199;-59
2024/01/13 03:39:06;;;;;;;2.27;1.83;;;;;;;;;;5097216;28;20163;-59
2024/01/13 03:41:32;;;;;;;3.10;1.83;;;;;;;;;;5098316;28;20181;-58
2024/01/13 03:43:58;;;;;;;2.40;2.00;;;;;;;;;;5097652;28;20172;-57
2024/01/13 03:46:30;;;;;;;5.37;2.23;;;;;;;;;;5097705;28;20545;-59
2024/01/13 03:48:56;;;;;;;2.20;1.80;;;;;;;;;;5097403;28;20174;-59
2024/01/13 03:51:22;;;;;;;2.43;1.93;;;;;;;;;;5097743;28;20243;-58
2024/01/13 03:53:48;;;;;;;2.37;2.17;;;;;;;;;;5098244;28;20196;-57
2024/01/13 03:56:14;;;;;;;3.50;2.17;;;;;;;;;;5115662;28;20608;-59
2024/01/13 03:58:40;;;;;;;2.43;1.90;;;;;;;;;;5097356;28;20557;-59
2024/01/13 04:01:06;;;;;;;2.47;2.00;;;;;;;;;;5115473;28;20163;-59
2024/01/13 04:03:32;;;;;;;2.53;2.33;;;;;;;;;;5097916;28;20174;-59
2024/01/13 04:05:58;;;;;;;3.83;2.13;;;;;;;;;;5097282;28;20438;-58
2024/01/13 04:08:24;;;;;;;2.93;2.23;;;;;;;;;;5096590;28;20178;-58
2024/01/13 04:10:50;;;;;;;2.87;2.43;;;;;;;;;;5096511;28;20177;-59
2024/01/13 04:13:17;;;;;;;2.73;2.43;;;;;;;;;;5096196;28;20223;-59
2024/01/13 04:15:43;;;;;;;3.10;2.43;;;;;;;;;;5096017;28;20178;-57
2024/01/13 04:18:09;;;;;;;4.10;2.80;;;;;;;;;;5096433;28;20640;-57
2024/01/13 04:20:35;;;;;;;5.50;3.17;;;;;;;;;;5096607;28;20203;-59
2024/01/13 04:23:01;;;;;;;4.57;3.60;;;;;;;;;;5095757;28;20178;-57
2024/01/13 04:25:27;;;;;;;6.03;3.67;;;;;;;;;;5114443;28;20151;-59
2024/01/13 04:27:54;;;;;;;6.63;4.00;;;;;;;;;;5114957;28;20224;-56
2024/01/13 04:30:20;;;;;;;7.03;3.53;;;;;;;;;;5096754;28;20183;-59
2024/01/13 04:32:46;;;;;;;4.30;3.23;;;;;;;;;;5114804;28;20246;-59
2024/01/13 04:35:12;;;;;;;4.30;3.43;;;;;;;;;;5115087;28;20422;-57
2024/01/13 04:37:39;;;;;;;8.30;3.80;;;;;;;;;;5097614;28;20202;-59
2024/01/13 04:40:05;;;;;;;5.27;3.30;;;;;;;;;;5115403;28;20516;-59
2024/01/13 04:42:31;;;;;;;5.07;3.57;;;;;;;;;;5097568;28;20172;-59
2024/01/13 04:44:57;;;;;;;4.10;2.70;;;;;;;;;;5098506;28;20178;-59
2024/01/13 04:47:24;;;;;;;3.10;2.27;;;;;;;;;;5101037;28;20271;-59
2024/01/13 04:49:50;;;;;;;3.70;2.33;;;;;;;;;;5118699;28;20551;-59
2024/01/13 04:52:16;;;;;;;6.17;2.70;;;;;;;;;;5102613;28;20176;-58
2024/01/13 04:54:42;;;;;;;3.37;2.07;;;;;;;;;;5100307;28;20198;-57
2024/01/13 04:57:14;;;;;;;4.20;2.07;;;;;;;;;;5100975;28;20246;-60
2024/01/13 04:59:40;;;;;;;2.73;2.10;;;;;;;;;;5118953;28;20238;-59
2024/01/13 05:02:06;;;;;;;3.57;1.93;;;;;;;;;;5101039;28;20262;-59
2024/01/13 05:04:32;;;;;;;2.50;2.07;;;;;;;;;;5100673;28;20171;-59
2024/01/13 05:06:58;;;;;;;3.03;1.93;;;;;;;;;;5100729;28;20209;-59
2024/01/13 05:09:24;;;;;;;2.03;1.67;;;;;;;;;;5099147;28;20678;-57
2024/01/13 05:11:50;;;;;;;3.70;2.30;;;;;;;;;;5095285;28;20230;-59
2024/01/13 05:14:16;;;;;;;2.60;2.00;;;;;;;;;;5078889;28;20259;-59
2024/01/13 05:16:42;;;;;;;2.13;1.70;;;;;;;;;;5079806;28;20203;-57
2024/01/13 05:19:09;;;;;;;2.30;1.83;;;;;;;;;;5079179;28;20588;-59
2024/01/13 05:21:35;;;;;;;3.33;2.03;;;;;;;;;;5079631;28;20172;-57
2024/01/13 05:24:01;;;;;;;4.00;2.23;;;;;;;;;;5078816;28;20198;-59
2024/01/13 05:26:27;;;;;;;3.17;2.60;;;;;;;;;;5073732;28;20456;-58
2024/01/13 05:28:52;;;;;;;5.17;2.67;;;;;;;;;;5074862;28;20633;-59
2024/01/13 05:31:18;;;;;;;3.50;2.87;;;;;;;;;;5092756;28;20632;-57
2024/01/13 05:33:45;;;;;;;4.10;3.10;;;;;;;;;;5076375;28;20214;-57
2024/01/13 05:36:11;;;;;;;4.43;3.30;;;;;;;;;;5093310;28;20623;-57
2024/01/13 05:38:37;;;;;;;3.67;2.90;;;;;;;;;;5095070;28;20233;-59
2024/01/13 05:41:03;;;;;;;7.07;3.57;;;;;;;;;;5093766;28;20172;-59
2024/01/13 05:43:29;;;;;;;5.37;3.30;;;;;;;;;;5094127;28;20164;-58
2024/01/13 05:45:55;;;;;;;4.10;2.87;;;;;;;;;;5075213;28;20168;-58
2024/01/13 05:48:21;;;;;;;5.53;3.47;;;;;;;;;;5075666;28;20311;-55
2024/01/13 05:50:47;;;;;;;5.90;3.63;;;;;;;;;;5074936;28;20252;-59
2024/01/13 05:53:13;;;;;;;4.80;3.07;;;;;;;;;;5074561;28;20469;-56
2024/01/13 05:55:39;;;;;;;5.07;3.50;;;;;;;;;;5074942;28;20494;-59
2024/01/13 05:58:06;;;;;;;4.73;2.80;;;;;;;;;;5075051;28;20481;-57
2024/01/13 06:00:32;;;;;;;4.70;3.43;;;;;;;;;;5074624;28;20173;-58
2024/01/13 06:02:58;;;;;;;3.43;2.70;;;;;;;;;;5073449;28;20172;-58
2024/01/13 06:05:24;;;;;;;3.63;3.07;;;;;;;;;;5073117;28;20180;-59
2024/01/13 06:07:50;;;;;;;4.57;3.40;;;;;;;;;;5073727;28;20228;-55
2024/01/13 06:10:19;;;;;;;4.87;3.00;;;;;;;;;;5072308;28;20183;-57
2024/01/13 06:12:45;;;;;;;4.63;2.90;;;;;;;;;;5103236;28;20322;-57
2024/01/13 06:15:11;;;;;;;4.07;2.87;;;;;;;;;;5094896;28;20190;-57
2024/01/13 06:17:38;;;;;;;3.67;2.73;;;;;;;;;;5097467;28;20742;-55
2024/01/13 06:20:04;;;;;;;3.73;2.83;;;;;;;;;;5115710;28;20167;-57
2024/01/13 06:22:30;;;;;;;3.90;2.87;;;;;;;;;;5097403;28;20284;-59
2024/01/13 06:24:56;;;;;;;7.03;3.23;;;;;;;;;;5097474;28;20474;-57
2024/01/13 06:27:22;;;;;;;4.03;2.87;;;;;;;;;;5115970;28;20175;-59
2024/01/13 06:29:47;;;;;;;4.93;3.83;;;;;;;;;;5115993;28;20606;-58
2024/01/13 06:32:13;;;;;;;5.77;3.40;;;;;;;;;;5098531;28;20283;-59
2024/01/13 06:34:39;;;;;;;4.77;3.53;;;;;;;;;;5098288;28;20592;-59
2024/01/13 06:37:05;;;;;;;4.23;2.97;;;;;;;;;;5098575;28;20591;-58
2024/01/13 06:39:31;;;;;;;4.00;3.10;;;;;;;;;;5098709;28;20168;-56
2024/01/13 06:41:58;;;;;;;4.20;3.00;;;;;;;;;;5097968;28;20214;-59
2024/01/13 06:44:24;;;;;;;4.90;3.40;;;;;;;;;;5097875;28;20164;-58
2024/01/13 06:46:52;;;;;;;4.70;3.10;;;;;;;;;;5097592;28;20172;-59
2024/01/13 06:49:18;;;;;;;4.70;3.53;;;;;;;;;;5097837;28;20229;-58
2024/01/13 06:51:44;;;;;;;6.13;3.33;;;;;;;;;;5096874;28;20254;-58
2024/01/13 06:54:09;;;;;;;5.00;3.43;;;;;;;;;;5096561;28;20241;-59
2024/01/13 06:56:37;;;;;;;4.80;3.70;;;;;;;;;;5097541;28;20199;-54
2024/01/13 06:59:03;;;;;;;5.50;4.43;;;;;;;;;;5097529;28;20208;-59
2024/01/13 07:01:29;;;;;;;5.70;3.73;;;;;;;;;;5096689;28;20171;-59
2024/01/13 07:03:55;;;;;;;5.70;3.43;;;;;;;;;;5097113;28;20199;-58
2024/01/13 07:06:21;;;;;;;6.30;4.30;;;;;;;;;;5097134;28;20183;-58
2024/01/13 07:08:47;;;;;;;6.80;4.80;;;;;;;;;;5098199;28;20182;-55
2024/01/13 07:11:14;;;;;;;6.67;3.93;;;;;;;;;;5097778;28;20175;-59
2024/01/13 07:13:43;;;;;;;8.50;4.23;;;;;;;;;;5096434;28;20323;-57
2024/01/13 07:16:10;;;;;;;4.63;3.47;;;;;;;;;;5113978;28;20194;-59
2024/01/13 07:18:36;;;;;;;5.17;4.07;;;;;;;;;;5097328;28;20179;-58
2024/01/13 07:21:02;;;;;;;4.73;3.13;;;;;;;;;;5097803;28;20179;-59
2024/01/13 07:23:29;;;;;;;3.87;3.33;;;;;;;;;;5097113;28;20172;-58
2024/01/13 07:25:55;;;;;;;4.13;3.10;;;;;;;;;;5115174;28;20191;-59
2024/01/13 07:28:22;;;;;;;5.93;3.27;;;;;;;;;;5115692;28;20708;-57
2024/01/13 07:30:48;;;;;;;4.93;3.97;;;;;;;;;;5098109;28;20167;-59
2024/01/13 07:33:14;;;;;;;3.80;2.80;;;;;;;;;;5098888;28;20278;-58
2024/01/13 07:35:40;;;;;;;4.73;2.70;;;;;;;;;;5097948;28;20214;-61
2024/01/13 07:38:06;;;;;;;4.00;2.60;;;;;;;;;;5098391;28;20733;-59
2024/01/13 07:40:32;;;;;;;3.67;2.93;;;;;;;;;;5097394;28;20167;-59
2024/01/13 07:42:58;;;;;;;3.53;2.00;;;;;;;;;;5097037;28;20163;-59
2024/01/13 07:45:24;;;;;;;2.73;2.33;;;;;;;;;;5096948;28;20171;-58
2024/01/13 07:47:50;;;;;;;2.07;1.50;;;;;;;;;;5115013;28;20170;-58
2024/01/13 07:50:19;;;;;;;4.90;1.90;;;;;;;;;;5095572;28;20788;-59
2024/01/13 07:52:45;;;;;;;4.03;2.43;;;;;;;;;;5095459;28;20167;-58
2024/01/13 07:55:11;;;;;;;3.47;2.33;;;;;;;;;;5096398;28;20167;-59
2024/01/13 07:57:37;;;;;;;3.20;2.30;;;;;;;;;;5095825;28;20203;-58
2024/01/13 08:00:03;;;;;;;2.93;2.07;;;;;;;;;;5113734;28;20239;-59
2024/01/13 08:02:29;;;;;;;3.73;2.33;;;;;;;;;;5114344;28;20166;-58
2024/01/13 08:04:55;;;;;;;1.90;1.50;;;;;;;;;;5097068;28;20179;-57
2024/01/13 08:07:23;;;;;;;1.27;1.17;;;;;;;;;;5096753;28;20175;-58
2024/01/13 08:09:49;;;;;;;1.77;1.30;;;;;;;;;;5092525;28;20454;-59
2024/01/13 08:12:15;;;;;;;1.70;1.60;;;;;;;;;;5091095;28;20266;-59
2024/01/13 08:14:41;;;;;;;1.97;1.43;;;;;;;;;;5091948;28;20217;-60
2024/01/13 08:17:07;;;;;;;1.50;1.40;;;;;;;;;;5113149;28;20194;-55
2024/01/13 08:19:33;;;;;;;2.50;1.57;;;;;;;;;;5100584;28;20239;-57
2024/01/13 08:21:59;;;;;;;1.50;1.40;;;;;;;;;;5103430;28;20545;-58
2024/01/13 08:24:25;;;;;;;1.93;1.40;;;;;;;;;;5120976;28;20543;-58
2024/01/13 08:26:52;;;;;;;1.80;1.47;;;;;;;;;;5103268;28;20193;-58
2024/01/13 08:29:18;;;;;;;1.87;1.67;;;;;;;;;;5121395;28;20576;-59
2024/01/13 08:31:47;;;;;;;2.30;1.80;;;;;;;;;;5121669;28;20550;-59
2024/01/13 08:34:13;;;;;;;2.00;1.80;;;;;;;;;;5103168;28;20170;-59
2024/01/13 08:36:40;;;;;;;3.40;1.50;;;;;;;;;;5120923;28;20199;-59
2024/01/13 08:39:06;;;;;;;3.97;1.63;;;;;;;;;;5103000;28;20447;-57
2024/01/13 08:41:33;;;;;;;2.73;1.70;;;;;;;;;;5103186;28;20169;-58
2024/01/13 08:43:59;;;;;;;1.70;1.40;;;;;;;;;;5103001;28;20266;-56
2024/01/13 08:46:26;;;;;;;2.00;1.80;;;;;;;;;;5120778;28;20543;-58
2024/01/13 08:48:52;;;;;;;1.70;1.50;;;;;;;;;;5102735;28;20179;-59
2024/01/13 08:51:18;;;;;;;2.77;2.10;;;;;;;;;;5101936;28;20179;-59
2024/01/13 08:53:47;;;;;;;1.57;1.47;;;;;;;;;;5102967;28;20175;-58
2024/01/13 08:56:14;;;;;;;1.97;1.77;;;;;;;;;;5101624;28;20178;-59
2024/01/13 08:58:40;;;;;;;1.70;1.60;;;;;;;;;;5101461;28;20167;-59
2024/01/13 09:01:08;;;;;;;2.33;2.07;;;;;;;;;;5100322;28;20635;-59
2024/01/13 09:03:35;;;;;;;2.83;1.77;;;;;;;;;;5100020;28;20211;-58
2024/01/13 09:06:01;;;;;;;1.90;1.70;;;;;;;;;;5119021;28;20174;-59
2024/01/13 09:08:27;;;;;;;2.23;1.70;;;;;;;;;;5100655;28;20273;-59
2024/01/13 09:10:53;;;;;;;2.90;1.57;;;;;;;;;;5100590;28;20535;-60
2024/01/13 09:13:20;;;;;;;1.37;1.27;;;;;;;;;;5099934;28;20342;-60
2024/01/13 09:15:47;;;;;;;2.33;1.50;;;;;;;;;;5117359;28;20239;-64
2024/01/13 09:18:14;;;;;;;1.40;1.30;;;;;;;;;;5103391;28;20209;-64
2024/01/13 09:20:40;;;;;;;4.23;1.60;;;;;;;;;;5103304;28;20269;-64
2024/01/13 09:23:07;;;;;;;1.27;1.13;;;;;;;;;;5104380;28;20213;-64
2024/01/13 09:25:35;;;;;;;1.67;1.37;;;;;;;;;;5121188;28;20535;-58
2024/01/13 09:28:01;;;;;;;3.57;1.60;;;;;;;;;;5119934;28;20186;-59
2024/01/13 09:30:27;;;;;;;1.37;1.27;;;;;;;;;;5098883;28;20471;-58
2024/01/13 09:32:53;;;;;;;1.33;0.90;;;;;;;;;;5115993;28;20172;-59
2024/01/13 09:35:19;;;;;;;2.37;1.30;;;;;;;;;;5098059;28;20503;-60
2024/01/13 09:37:45;;;;;;;1.90;1.53;;;;;;;;;;5116343;28;20238;-59
2024/01/13 09:40:12;;;;;;;2.80;1.60;;;;;;;;;;5099071;28;20258;-59
2024/01/13 09:42:44;;;;;;;4.50;1.73;;;;;;;;;;5097407;28;20247;-59
2024/01/13 09:45:10;;;;;;;1.73;1.43;;;;;;;;;;5099387;28;20191;-55
2024/01/13 09:47:36;;;;;;;2.17;1.03;;;;;;;;;;5097485;28;20183;-57
2024/01/13 09:50:04;;;;;;;4.80;1.47;;;;;;;;;;5114884;28;20175;-58
2024/01/13 09:52:30;;;;;;;1.97;1.40;;;;;;;;;;5097649;28;20209;-56
2024/01/13 09:55:00;;;;;;;2.33;1.40;;;;;;;;;;5115765;28;20202;-58
2024/01/13 09:57:26;;;;;;;1.40;1.27;;;;;;;;;;5115001;28;20226;-56
2024/01/13 09:59:52;;;;;;;2.97;1.50;;;;;;;;;;5098008;28;20175;-56
2024/01/13 10:02:18;;;;;;;3.73;1.60;;;;;;;;;;5116104;28;20169;-56
2024/01/13 10:04:44;;;;;;;1.30;1.20;;;;;;;;;;5114593;28;20156;-57
2024/01/13 10:07:10;;;;;;;1.90;1.57;;;;;;;;;;5114940;28;20156;-55
2024/01/13 10:09:37;;;;;;;1.40;1.30;;;;;;;;;;5095705;28;20167;-55
2024/01/13 10:12:07;;;;;;;1.20;1.10;;;;;;;;;;5096144;28;20233;-55
2024/01/13 10:14:40;;;;;;;1.10;0.97;;;;;;;;;;5095580;28;20182;-54
2024/01/13 10:17:06;;;;;;;1.00;1.00;;;;;;;;;;5095048;28;20210;-53
2024/01/13 10:19:41;;;;;;;1.50;1.37;;;;;;;;;;5094137;28;20171;-57
2024/01/13 10:22:09;;;;;;;0.87;0.87;;;;;;;;;;5095088;28;20247;-57
2024/01/13 10:24:35;;;;;;;1.93;1.10;;;;;;;;;;5095260;28;20172;-57
2024/01/13 10:27:01;;;;;;;1.50;1.23;;;;;;;;;;5095446;28;20221;-56
2024/01/13 10:29:30;;;;;;;1.23;1.13;;;;;;;;;;5112637;28;20206;-57
2024/01/13 10:31:56;;;;;;;1.50;1.37;;;;;;;;;;5095809;28;20171;-57
2024/01/13 10:34:22;;;;;;;1.80;1.53;;;;;;;;;;5094696;28;20262;-56
2024/01/13 10:36:50;;;;;;;2.17;1.30;;;;;;;;;;5093646;28;20250;-57
2024/01/13 10:39:17;;;;;;;1.37;1.20;;;;;;;;;;5093227;28;20220;-55
2024/01/13 10:41:47;;;;;;;1.90;1.33;;;;;;;;;;5110024;28;20160;-55
2024/01/13 10:44:14;;;;;;;2.37;1.67;;;;;;;;;;5090993;28;20258;-56
2024/01/13 10:46:43;;;;;;;1.37;1.27;;;;;;;;;;5092219;28;20171;-55
2024/01/13 10:49:13;;;;;;;2.27;1.77;;;;;;;;;;5091679;28;20167;-57
2024/01/13 10:51:45;;;;;;;2.37;1.73;;;;;;;;;;5093165;28;20228;-57
2024/01/13 10:54:12;;;;;;;2.03;1.83;;;;;;;;;;5094065;28;20175;-57
2024/01/13 10:56:41;;;;;;;2.47;1.87;;;;;;;;;;5111487;28;20206;-54
2024/01/13 10:59:08;;;;;;;1.90;1.70;;;;;;;;;;5095588;28;20164;-55
2024/01/13 11:01:38;;;;;;;2.43;1.73;;;;;;;;;;5110447;28;20184;-57
2024/01/13 11:04:05;;;;;;;3.37;2.10;;;;;;;;;;5109622;28;20686;-57
2024/01/13 11:06:34;;;;;;;2.87;2.33;;;;;;;;;;5091625;28;20214;-57
2024/01/13 11:09:01;;;;;;;2.20;1.90;;;;;;;;;;5110572;28;20467;-57
2024/01/13 11:11:31;;;;;;;4.40;2.17;;;;;;;;;;5089986;28;20248;-53
2024/01/13 11:14:00;;;;;;;2.70;1.70;;;;;;;;;;5082398;28;20172;-56
2024/01/13 11:16:27;;;;;;;2.63;1.50;;;;;;;;;;5072185;28;20160;-56
2024/01/13 11:18:54;;;;;;;3.77;1.63;;;;;;;;;;5090355;28;20250;-54
2024/01/13 11:21:28;;;;;;;2.07;1.40;;;;;;;;;;5088709;28;20184;-56
2024/01/13 11:23:54;;;;;;;1.77;1.40;;;;;;;;;;5071079;28;20515;-56
2024/01/13 11:26:22;;;;;;;1.20;1.10;;;;;;;;;;5069964;28;20544;-57
2024/01/13 11:28:52;;;;;;;1.93;1.40;;;;;;;;;;5072109;28;20271;-56
2024/01/13 11:31:30;;;;;;;1.30;1.20;;;;;;;;;;5073518;28;20259;-53
2024/01/13 11:33:56;;;;;;;2.80;1.30;;;;;;;;;;5072725;28;20274;-54
2024/01/13 11:36:22;;;;;;;2.30;1.27;;;;;;;;;;5071606;28;20191;-55
2024/01/13 11:38:49;;;;;;;6.50;1.50;;;;;;;;;;5074137;28;20190;-54
2024/01/13 11:41:16;;;;;;;2.03;1.80;;;;;;;;;;5090517;28;20218;-54
2024/01/13 11:43:44;;;;;;;1.40;1.30;;;;;;;;;;5089436;28;20264;-50
2024/01/13 11:46:16;;;;;;;1.77;1.67;;;;;;;;;;5072850;28;20543;-56
2024/01/13 11:48:42;;;;;;;1.40;1.30;;;;;;;;;;5072773;28;20233;-57
2024/01/13 11:51:08;;;;;;;1.67;1.57;;;;;;;;;;5072836;28;20179;-56
2024/01/13 11:53:42;;;;;;;2.77;1.80;;;;;;;;;;5072027;28;20500;-55
2024/01/13 11:56:09;;;;;;;1.93;1.67;;;;;;;;;;5072331;28;20201;-56
2024/01/13 11:58:38;;;;;;;2.87;1.70;;;;;;;;;;5090554;28;20294;-57
2024/01/13 12:01:05;;;;;;;2.37;2.17;;;;;;;;;;5091687;28;20168;-54
2024/01/13 12:03:31;;;;;;;3.67;2.20;;;;;;;;;;5091106;28;20179;-55
2024/01/13 12:06:01;;;;;;;5.23;2.60;;;;;;;;;;5073315;28;20183;-56
2024/01/13 12:08:27;;;;;;;4.17;1.87;;;;;;;;;;5073069;28;20175;-57
2024/01/13 12:10:54;;;;;;;2.07;1.87;;;;;;;;;;5089760;28;20172;-57
2024/01/13 12:13:21;;;;;;;2.40;2.13;;;;;;;;;;5085906;28;20280;-53
2024/01/13 12:15:47;;;;;;;4.23;2.50;;;;;;;;;;5090465;28;20203;-56
2024/01/13 12:18:18;;;;;;;5.03;2.47;;;;;;;;;;5089786;28;20195;-57
2024/01/13 12:20:44;;;;;;;5.60;3.53;;;;;;;;;;5089404;28;20241;-56
2024/01/13 12:23:10;;;;;;;4.93;3.50;;;;;;;;;;5090025;28;20160;-56
2024/01/13 12:25:36;;;;;;;4.50;2.93;;;;;;;;;;5088967;28;20165;-57
2024/01/13 12:28:02;;;;;;;3.17;2.60;;;;;;;;;;5088710;28;20592;-54
2024/01/13 12:30:29;;;;;;;3.60;2.90;;;;;;;;;;5090076;28;20464;-57
2024/01/13 12:32:55;;;;;;;4.00;2.93;;;;;;;;;;5089393;28;20168;-55
2024/01/13 12:35:25;;;;;;;3.90;2.57;;;;;;;;;;5090256;28;20484;-57
2024/01/13 12:37:51;;;;;;;5.60;3.20;;;;;;;;;;5088459;28;20204;-55
2024/01/13 12:40:18;;;;;;;4.70;3.27;;;;;;;;;;5091203;28;20168;-55
2024/01/13 12:42:46;;;;;;;5.63;3.60;;;;;;;;;;5090692;28;20511;-53
2024/01/13 12:45:12;;;;;;;7.83;3.60;;;;;;;;;;5089628;28;20155;-57
2024/01/13 12:47:38;;;;;;;5.53;3.30;;;;;;;;;;5087544;28;20164;-57
2024/01/13 12:50:11;;;;;;;5.10;3.40;;;;;;;;;;5086231;28;20183;-57
2024/01/13 12:52:41;;;;;;;4.10;3.50;;;;;;;;;;5088162;28;20168;-55
2024/01/13 12:55:07;;;;;;;5.17;3.73;;;;;;;;;;5086851;28;20749;-57
2024/01/13 12:57:34;;;;;;;5.87;3.80;;;;;;;;;;5088123;28;20542;-56
2024/01/13 13:00:02;;;;;;;6.80;4.00;;;;;;;;;;5087800;28;20566;-56
2024/01/13 13:02:28;;;;;;;7.13;3.50;;;;;;;;;;5087433;28;20180;-56
2024/01/13 13:04:54;;;;;;;5.77;3.90;;;;;;;;;;5087870;28;20195;-54
2024/01/13 13:07:24;;;;;;;4.40;3.93;;;;;;;;;;5092037;28;20206;-57
2024/01/13 13:09:50;;;;;;;8.47;5.27;;;;;;;;;;5092227;28;20201;-57
2024/01/13 13:12:16;;;;;;;6.37;4.20;;;;;;;;;;5093109;28;20219;-54
2024/01/13 13:14:43;;;;;;;6.93;4.50;;;;;;;;;;5092174;28;20171;-57
2024/01/13 13:17:09;;;;;;;5.23;4.03;;;;;;;;;;5093046;28;20217;-56
2024/01/13 13:19:35;;;;;;;6.43;4.60;;;;;;;;;;5093984;28;20179;-55
2024/01/13 13:22:01;;;;;;;9.33;5.27;;;;;;;;;;5093998;28;20196;-56
2024/01/13 13:24:27;;;;;;;7.13;4.77;;;;;;;;;;5093177;28;20182;-56
2024/01/13 13:26:53;;;;;;;8.37;4.33;;;;;;;;;;5092265;28;20237;-57
2024/01/13 13:29:19;;;;;;;7.10;4.80;;;;;;;;;;5092405;28;20172;-57
2024/01/13 13:31:45;;;;;;;6.73;4.10;;;;;;;;;;5092474;28;20168;-55
2024/01/13 13:34:11;;;;;;;7.23;4.93;;;;;;;;;;5092231;28;20185;-57
2024/01/13 13:36:37;;;;;;;5.53;3.97;;;;;;;;;;5093996;28;20222;-56
2024/01/13 13:39:05;;;;;;;5.97;4.10;;;;;;;;;;5092239;28;20235;-55
2024/01/13 13:41:31;;;;;;;7.40;5.10;;;;;;;;;;5093134;28;20235;-57
2024/01/13 13:43:57;;;;;;;5.37;3.90;;;;;;;;;;5092699;28;20199;-57
2024/01/13 13:46:23;;;;;;;6.87;5.00;;;;;;;;;;5092750;28;20209;-55
2024/01/13 13:48:49;;;;;;;7.63;4.33;;;;;;;;;;5092829;28;20183;-57
2024/01/13 13:51:15;;;;;;;9.73;4.90;;;;;;;;;;5091641;28;20240;-57
2024/01/13 13:53:41;;;;;;;9.47;4.80;;;;;;;;;;5092416;28;20167;-57
2024/01/13 13:56:07;;;;;;;6.97;3.77;;;;;;;;;;5089248;28;20267;-56
2024/01/13 13:58:33;;;;;;;5.27;3.70;;;;;;;;;;5089125;28;20302;-56
2024/01/13 14:00:59;;;;;;;6.17;4.30;;;;;;;;;;5090229;28;20168;-57
2024/01/13 14:03:25;;;;;;;4.27;3.00;;;;;;;;;;5088380;28;20262;-54
2024/01/13 14:05:51;;;;;;;5.07;3.60;;;;;;;;;;5088515;28;20278;-56
2024/01/13 14:08:17;;;;;;;4.53;3.47;;;;;;;;;;5090236;28;20176;-54
2024/01/13 14:10:44;;;;;;;3.93;2.87;;;;;;;;;;5089401;28;20172;-56
2024/01/13 14:13:10;;;;;;;4.30;3.03;;;;;;;;;;5089892;28;20256;-55
2024/01/13 14:15:36;;;;;;;2.90;2.60;;;;;;;;;;5090467;28;20753;-57
2024/01/13 14:18:02;;;;;;;2.57;2.17;;;;;;;;;;5091329;28;20295;-55
2024/01/13 14:20:28;;;;;;;4.90;2.07;;;;;;;;;;5090770;28;20322;-56
2024/01/13 14:22:55;;;;;;;2.70;2.33;;;;;;;;;;5091114;28;20700;-56
2024/01/13 14:25:21;;;;;;;2.50;2.10;;;;;;;;;;5090874;28;20295;-55
2024/01/13 14:27:47;;;;;;;4.00;2.50;;;;;;;;;;5089518;28;20225;-56
2024/01/13 14:30:13;;;;;;;1.60;1.50;;;;;;;;;;5090517;28;20176;-55
2024/01/13 14:32:39;;;;;;;5.03;1.63;;;;;;;;;;5090554;28;20175;-58
2024/01/13 14:35:06;;;;;;;1.20;1.10;;;;;;;;;;5091589;28;20195;-56
2024/01/13 14:37:32;;;;;;;6.07;1.60;;;;;;;;;;5090707;28;20207;-55
2024/01/13 14:39:58;;;;;;;2.07;1.67;;;;;;;;;;5090930;28;20457;-56